sensor_id;sensor_type;location;lat;lon;timestamp;pressure;altitude;pressure_sealevel;temperature;humidity
27864;BME280;15980;51.092;13.916;2022-09-29T00:00:14;97182.50;;;4.41;97.86
27864;BME280;15980;51.092;13.916;2022-09-29T00:05:17;97180.94;;;4.64;100.00
27864;BME280;15980;51.092;13.916;2022-09-29T00:10:20;97189.56;;;4.79;100.00
27864;BME280;15980;51.092;13.916;2022-09-29T00:15:25;97185.38;;;4.93;100.00
27864;BME280;15980;51.092;13.916;2022-09-29T00:20:28;97190.00;;;4.93;99.93
27864;BME280;15980;51.092;13.916;2022-09-29T00:25:31;97188.31;;;4.88;99.62
27864;BME280;15980;51.092;13.916;2022-09-29T00:30:36;97191.94;;;4.80;98.66
27864;BME280;15980;51.092;13.916;2022-09-29T00:35:39;97192.16;;;4.87;100.00
27864;BME280;15980;51.092;13.916;2022-09-29T00:40:42;97194.88;;;4.87;99.85
27864;BME280;15980;51.092;13.916;2022-09-29T00:45:46;97195.78;;;4.79;98.86
27864;BME280;15980;51.092;13.916;2022-09-29T00:50:51;97194.72;;;4.71;98.41
27864;BME280;15980;51.092;13.916;2022-09-29T00:55:59;97189.06;;;4.64;98.42
27864;BME280;15980;51.092;13.916;2022-09-29T01:01:05;97187.94;;;4.53;97.35
27864;BME280;15980;51.092;13.916;2022-09-29T01:06:12;97192.56;;;4.40;97.18
27864;BME280;15980;51.092;13.916;2022-09-29T01:11:17;97196.00;;;4.29;97.23
27864;BME280;15980;51.092;13.916;2022-09-29T01:16:23;97197.69;;;4.21;97.49
27864;BME280;15980;51.092;13.916;2022-09-29T01:21:33;97197.03;;;4.24;98.26
27864;BME280;15980;51.092;13.916;2022-09-29T01:32:28;97206.47;;;4.39;98.95
27864;BME280;15980;51.092;13.916;2022-09-29T01:37:47;97204.09;;;4.37;97.98
27864;BME280;15980;51.092;13.916;2022-09-29T01:42:57;97207.00;;;4.32;98.24
27864;BME280;15980;51.092;13.916;2022-09-29T01:48:06;97207.75;;;4.21;97.72
27864;BME280;15980;51.092;13.916;2022-09-29T01:53:13;97212.16;;;4.13;98.04
27864;BME280;15980;51.092;13.916;2022-09-29T01:58:19;97212.69;;;4.06;97.29
27864;BME280;15980;51.092;13.916;2022-09-29T02:03:29;97203.81;;;4.30;100.00
27864;BME280;15980;51.092;13.916;2022-09-29T02:08:37;97211.81;;;4.48;100.00
27864;BME280;15980;51.092;13.916;2022-09-29T02:13:44;97219.19;;;4.59;100.00
27864;BME280;15980;51.092;13.916;2022-09-29T02:18:52;97217.72;;;4.62;100.00
27864;BME280;15980;51.092;13.916;2022-09-29T02:23:59;97218.16;;;4.64;100.00
27864;BME280;15980;51.092;13.916;2022-09-29T02:29:02;97217.03;;;4.65;99.72
27864;BME280;15980;51.092;13.916;2022-09-29T02:34:10;97224.72;;;4.63;99.08
27864;BME280;15980;51.092;13.916;2022-09-29T02:39:25;97228.00;;;4.56;99.06
27864;BME280;15980;51.092;13.916;2022-09-29T02:44:45;97231.59;;;4.48;98.67
27864;BME280;15980;51.092;13.916;2022-09-29T02:50:07;97232.63;;;4.44;98.79
27864;BME280;15980;51.092;13.916;2022-09-29T02:55:19;97235.47;;;4.47;99.60
27864;BME280;15980;51.092;13.916;2022-09-29T03:00:27;97232.84;;;4.51;99.08
27864;BME280;15980;51.092;13.916;2022-09-29T03:05:31;97235.34;;;4.56;99.83
27864;BME280;15980;51.092;13.916;2022-09-29T03:10:34;97236.59;;;4.58;99.18
27864;BME280;15980;51.092;13.916;2022-09-29T03:15:37;97235.38;;;4.68;100.00
27864;BME280;15980;51.092;13.916;2022-09-29T03:20:42;97230.53;;;4.86;100.00
27864;BME280;15980;51.092;13.916;2022-09-29T03:25:45;97232.25;;;5.02;100.00
27864;BME280;15980;51.092;13.916;2022-09-29T03:30:48;97229.53;;;5.15;99.20
27864;BME280;15980;51.092;13.916;2022-09-29T03:35:53;97238.25;;;5.20;99.34
27864;BME280;15980;51.092;13.916;2022-09-29T03:40:56;97246.31;;;5.29;99.16
27864;BME280;15980;51.092;13.916;2022-09-29T03:45:59;97243.56;;;5.41;98.86
27864;BME280;15980;51.092;13.916;2022-09-29T03:51:04;97253.63;;;5.53;97.87
27864;BME280;15980;51.092;13.916;2022-09-29T03:56:07;97253.16;;;5.63;98.68
27864;BME280;15980;51.092;13.916;2022-09-29T04:01:10;97248.84;;;5.74;98.16
27864;BME280;15980;51.092;13.916;2022-09-29T04:06:14;97260.84;;;5.85;98.43
27864;BME280;15980;51.092;13.916;2022-09-29T04:11:17;97251.41;;;5.95;98.21
27864;BME280;15980;51.092;13.916;2022-09-29T04:16:20;97258.44;;;6.08;98.38
27864;BME280;15980;51.092;13.916;2022-09-29T04:21:25;97250.91;;;6.17;97.55
27864;BME280;15980;51.092;13.916;2022-09-29T04:26:28;97245.31;;;6.26;97.33
27864;BME280;15980;51.092;13.916;2022-09-29T04:31:30;97245.66;;;6.24;96.36
27864;BME280;15980;51.092;13.916;2022-09-29T04:36:35;97249.06;;;6.21;96.40
27864;BME280;15980;51.092;13.916;2022-09-29T04:41:38;97246.88;;;6.27;96.72
27864;BME280;15980;51.092;13.916;2022-09-29T04:46:41;97259.56;;;6.35;96.25
27864;BME280;15980;51.092;13.916;2022-09-29T04:51:46;97260.09;;;6.41;95.99
27864;BME280;15980;51.092;13.916;2022-09-29T04:56:49;97267.00;;;6.50;96.49
27864;BME280;15980;51.092;13.916;2022-09-29T05:01:52;97268.59;;;6.51;95.50
27864;BME280;15980;51.092;13.916;2022-09-29T05:06:57;97270.78;;;6.61;96.20
27864;BME280;15980;51.092;13.916;2022-09-29T05:12:00;97279.06;;;6.65;95.94
27864;BME280;15980;51.092;13.916;2022-09-29T05:17:03;97272.56;;;6.70;95.92
27864;BME280;15980;51.092;13.916;2022-09-29T05:22:08;97280.91;;;6.77;95.99
27864;BME280;15980;51.092;13.916;2022-09-29T05:27:11;97274.78;;;6.80;95.40
27864;BME280;15980;51.092;13.916;2022-09-29T05:32:14;97267.81;;;6.82;94.97
27864;BME280;15980;51.092;13.916;2022-09-29T05:37:18;97268.69;;;6.86;95.20
27864;BME280;15980;51.092;13.916;2022-09-29T05:42:21;97283.22;;;6.90;94.65
27864;BME280;15980;51.092;13.916;2022-09-29T05:47:26;97281.84;;;6.97;94.42
27864;BME280;15980;51.092;13.916;2022-09-29T05:52:30;97279.72;;;7.06;94.57
27864;BME280;15980;51.092;13.916;2022-09-29T05:57:34;97280.88;;;7.20;94.44
27864;BME280;15980;51.092;13.916;2022-09-29T06:02:37;97281.75;;;7.40;94.11
27864;BME280;15980;51.092;13.916;2022-09-29T06:07:41;97274.13;;;7.65;93.62
27864;BME280;15980;51.092;13.916;2022-09-29T06:12:44;97280.88;;;7.87;93.50
27864;BME280;15980;51.092;13.916;2022-09-29T06:17:54;97285.63;;;8.09;91.71
27864;BME280;15980;51.092;13.916;2022-09-29T06:22:58;97282.13;;;8.28;90.80
27864;BME280;15980;51.092;13.916;2022-09-29T06:28:01;97288.84;;;8.50;89.84
27864;BME280;15980;51.092;13.916;2022-09-29T06:33:04;97297.03;;;8.69;88.23
27864;BME280;15980;51.092;13.916;2022-09-29T06:38:08;97299.31;;;8.87;88.10
27864;BME280;15980;51.092;13.916;2022-09-29T06:43:11;97306.25;;;9.03;85.87
27864;BME280;15980;51.092;13.916;2022-09-29T06:48:14;97301.09;;;9.21;85.84
27864;BME280;15980;51.092;13.916;2022-09-29T06:53:18;97304.78;;;9.09;85.28
27864;BME280;15980;51.092;13.916;2022-09-29T06:58:26;97297.38;;;9.10;86.13
27864;BME280;15980;51.092;13.916;2022-09-29T07:03:29;97296.16;;;9.07;85.62
27864;BME280;15980;51.092;13.916;2022-09-29T07:08:34;97292.50;;;9.00;86.59
27864;BME280;15980;51.092;13.916;2022-09-29T07:13:39;97293.00;;;9.05;87.29
27864;BME280;15980;51.092;13.916;2022-09-29T07:18:42;97290.94;;;9.22;87.42
27864;BME280;15980;51.092;13.916;2022-09-29T07:23:48;97292.75;;;9.37;86.04
27864;BME280;15980;51.092;13.916;2022-09-29T07:28:51;97295.00;;;9.31;85.28
27864;BME280;15980;51.092;13.916;2022-09-29T07:33:55;97302.56;;;9.15;84.96
27864;BME280;15980;51.092;13.916;2022-09-29T07:38:59;97305.66;;;9.13;85.11
27864;BME280;15980;51.092;13.916;2022-09-29T07:44:02;97314.06;;;8.82;84.90
27864;BME280;15980;51.092;13.916;2022-09-29T07:49:05;97321.88;;;9.03;85.16
27864;BME280;15980;51.092;13.916;2022-09-29T07:54:10;97338.59;;;8.98;84.09
27864;BME280;15980;51.092;13.916;2022-09-29T07:59:13;97332.72;;;9.19;83.91
27864;BME280;15980;51.092;13.916;2022-09-29T08:04:16;97337.09;;;9.23;83.47
27864;BME280;15980;51.092;13.916;2022-09-29T08:09:20;97340.38;;;9.32;82.67
27864;BME280;15980;51.092;13.916;2022-09-29T08:14:27;97346.72;;;9.36;83.08
27864;BME280;15980;51.092;13.916;2022-09-29T08:19:30;97341.59;;;9.58;82.60
27864;BME280;15980;51.092;13.916;2022-09-29T08:24:34;97343.16;;;9.82;82.26
27864;BME280;15980;51.092;13.916;2022-09-29T08:29:40;97350.34;;;9.67;81.05
27864;BME280;15980;51.092;13.916;2022-09-29T08:34:46;97356.31;;;9.72;81.39
27864;BME280;15980;51.092;13.916;2022-09-29T08:39:50;97355.69;;;9.83;80.34
27864;BME280;15980;51.092;13.916;2022-09-29T08:44:57;97354.88;;;10.05;79.05
27864;BME280;15980;51.092;13.916;2022-09-29T08:50:13;97361.41;;;10.23;78.63
27864;BME280;15980;51.092;13.916;2022-09-29T08:55:26;97366.88;;;10.23;77.98
27864;BME280;15980;51.092;13.916;2022-09-29T09:00:33;97376.59;;;10.44;78.15
27864;BME280;15980;51.092;13.916;2022-09-29T09:06:00;97382.94;;;10.51;78.04
27864;BME280;15980;51.092;13.916;2022-09-29T09:11:24;97380.06;;;10.70;77.72
27864;BME280;15980;51.092;13.916;2022-09-29T09:16:36;97382.75;;;10.67;76.02
27864;BME280;15980;51.092;13.916;2022-09-29T09:21:43;97378.56;;;10.77;75.66
27864;BME280;15980;51.092;13.916;2022-09-29T09:26:51;97387.78;;;10.91;73.95
27864;BME280;15980;51.092;13.916;2022-09-29T09:31:57;97377.13;;;10.86;73.22
27864;BME280;15980;51.092;13.916;2022-09-29T09:37:04;97377.84;;;11.17;73.38
27864;BME280;15980;51.092;13.916;2022-09-29T09:42:14;97387.69;;;10.84;71.98
27864;BME280;15980;51.092;13.916;2022-09-29T09:47:24;97384.50;;;11.53;72.43
27864;BME280;15980;51.092;13.916;2022-09-29T09:52:32;97385.94;;;12.32;70.91
27864;BME280;15980;51.092;13.916;2022-09-29T10:03:07;97397.03;;;11.91;67.62
27864;BME280;15980;51.092;13.916;2022-09-29T10:08:15;97382.38;;;12.27;67.11
27864;BME280;15980;51.092;13.916;2022-09-29T10:13:23;97398.75;;;12.10;66.30
27864;BME280;15980;51.092;13.916;2022-09-29T10:18:31;97402.31;;;12.76;64.21
27864;BME280;15980;51.092;13.916;2022-09-29T10:23:38;97398.19;;;12.45;65.20
27864;BME280;15980;51.092;13.916;2022-09-29T10:28:46;97406.69;;;12.91;64.02
27864;BME280;15980;51.092;13.916;2022-09-29T10:33:55;97407.72;;;12.58;63.65
27864;BME280;15980;51.092;13.916;2022-09-29T10:38:58;97411.38;;;12.80;62.84
27864;BME280;15980;51.092;13.916;2022-09-29T10:44:20;97403.44;;;13.97;61.86
27864;BME280;15980;51.092;13.916;2022-09-29T10:49:24;97402.88;;;15.02;60.35
27864;BME280;15980;51.092;13.916;2022-09-29T10:54:31;97417.16;;;15.70;58.44
27864;BME280;15980;51.092;13.916;2022-09-29T10:59:45;97418.34;;;14.71;55.28
27864;BME280;15980;51.092;13.916;2022-09-29T11:04:49;97416.94;;;15.32;55.42
27864;BME280;15980;51.092;13.916;2022-09-29T11:09:53;97420.38;;;14.56;53.38
27864;BME280;15980;51.092;13.916;2022-09-29T11:14:58;97431.81;;;14.37;54.25
27864;BME280;15980;51.092;13.916;2022-09-29T11:20:04;97424.66;;;14.71;54.89
27864;BME280;15980;51.092;13.916;2022-09-29T11:25:19;97415.25;;;14.48;55.75
27864;BME280;15980;51.092;13.916;2022-09-29T11:30:26;97417.94;;;14.87;53.27
27864;BME280;15980;51.092;13.916;2022-09-29T11:35:44;97419.91;;;14.83;54.85
27864;BME280;15980;51.092;13.916;2022-09-29T11:41:01;97415.94;;;14.87;56.54
27864;BME280;15980;51.092;13.916;2022-09-29T11:46:19;97421.91;;;14.75;57.63
27864;BME280;15980;51.092;13.916;2022-09-29T11:51:35;97433.28;;;14.91;55.86
27864;BME280;15980;51.092;13.916;2022-09-29T11:56:48;97432.84;;;15.03;54.62
27864;BME280;15980;51.092;13.916;2022-09-29T12:02:03;97439.56;;;15.02;53.94
27864;BME280;15980;51.092;13.916;2022-09-29T12:07:21;97436.84;;;14.95;54.90
27864;BME280;15980;51.092;13.916;2022-09-29T12:12:35;97428.25;;;14.54;57.65
27864;BME280;15980;51.092;13.916;2022-09-29T12:17:47;97425.88;;;14.56;56.96
27864;BME280;15980;51.092;13.916;2022-09-29T12:22:53;97420.31;;;14.77;57.08
27864;BME280;15980;51.092;13.916;2022-09-29T12:28:01;97434.78;;;15.14;54.60
27864;BME280;15980;51.092;13.916;2022-09-29T12:33:13;97434.06;;;15.83;55.84
27864;BME280;15980;51.092;13.916;2022-09-29T12:38:21;97427.00;;;16.26;56.46
27864;BME280;15980;51.092;13.916;2022-09-29T12:43:29;97428.63;;;17.06;52.44
27864;BME280;15980;51.092;13.916;2022-09-29T12:48:45;97432.66;;;17.63;51.26
27864;BME280;15980;51.092;13.916;2022-09-29T12:54:05;97433.41;;;17.67;49.40
27864;BME280;15980;51.092;13.916;2022-09-29T12:59:15;97432.84;;;17.79;48.80
27864;BME280;15980;51.092;13.916;2022-09-29T13:15:41;97436.28;;;17.25;49.95
27864;BME280;15980;51.092;13.916;2022-09-29T13:21:03;97440.03;;;16.74;52.97
27864;BME280;15980;51.092;13.916;2022-09-29T13:26:18;97437.06;;;16.54;55.57
27864;BME280;15980;51.092;13.916;2022-09-29T13:31:28;97442.19;;;16.04;52.95
27864;BME280;15980;51.092;13.916;2022-09-29T13:36:37;97446.56;;;16.05;52.87
27864;BME280;15980;51.092;13.916;2022-09-29T13:41:43;97451.53;;;15.73;53.62
27864;BME280;15980;51.092;13.916;2022-09-29T13:46:45;97441.47;;;15.27;55.11
27864;BME280;15980;51.092;13.916;2022-09-29T13:51:51;97456.47;;;15.22;53.91
27864;BME280;15980;51.092;13.916;2022-09-29T14:02:32;97461.16;;;16.09;51.84
27864;BME280;15980;51.092;13.916;2022-09-29T14:07:40;97461.66;;;15.93;52.41
27864;BME280;15980;51.092;13.916;2022-09-29T14:12:46;97451.13;;;16.26;51.20
27864;BME280;15980;51.092;13.916;2022-09-29T14:17:55;97455.38;;;16.38;49.50
27864;BME280;15980;51.092;13.916;2022-09-29T14:23:03;97449.56;;;16.25;50.86
27864;BME280;15980;51.092;13.916;2022-09-29T14:28:09;97449.38;;;15.94;51.63
27864;BME280;15980;51.092;13.916;2022-09-29T14:33:18;97455.41;;;15.82;53.35
27864;BME280;15980;51.092;13.916;2022-09-29T14:38:25;97444.22;;;16.00;57.04
27864;BME280;15980;51.092;13.916;2022-09-29T14:43:36;97461.25;;;15.95;58.78
27864;BME280;15980;51.092;13.916;2022-09-29T14:48:51;97466.31;;;16.07;58.29
27864;BME280;15980;51.092;13.916;2022-09-29T14:54:24;97470.31;;;15.95;58.70
27864;BME280;15980;51.092;13.916;2022-09-29T14:59:42;97472.31;;;15.95;59.19
27864;BME280;15980;51.092;13.916;2022-09-29T15:04:49;97483.97;;;15.61;59.30
27864;BME280;15980;51.092;13.916;2022-09-29T15:09:55;97484.09;;;15.26;60.21
27864;BME280;15980;51.092;13.916;2022-09-29T15:14:59;97478.25;;;14.99;60.82
27864;BME280;15980;51.092;13.916;2022-09-29T15:20:07;97490.88;;;14.96;59.87
27864;BME280;15980;51.092;13.916;2022-09-29T15:25:21;97504.28;;;15.01;60.19
27864;BME280;15980;51.092;13.916;2022-09-29T15:30:27;97501.50;;;15.05;61.80
27864;BME280;15980;51.092;13.916;2022-09-29T15:35:33;97506.69;;;14.92;61.19
27864;BME280;15980;51.092;13.916;2022-09-29T15:40:42;97506.72;;;14.74;61.85
27864;BME280;15980;51.092;13.916;2022-09-29T15:45:53;97520.09;;;14.40;63.16
27864;BME280;15980;51.092;13.916;2022-09-29T15:50:58;97530.72;;;14.17;64.52
27864;BME280;15980;51.092;13.916;2022-09-29T15:56:04;97537.00;;;14.00;66.30
27864;BME280;15980;51.092;13.916;2022-09-29T16:01:11;97549.22;;;14.02;66.17
27864;BME280;15980;51.092;13.916;2022-09-29T16:06:21;97557.50;;;14.06;65.88
27864;BME280;15980;51.092;13.916;2022-09-29T16:11:32;97566.16;;;13.97;66.02
27864;BME280;15980;51.092;13.916;2022-09-29T16:16:39;97574.72;;;13.71;66.80
27864;BME280;15980;51.092;13.916;2022-09-29T16:21:43;97569.44;;;13.37;68.18
27864;BME280;15980;51.092;13.916;2022-09-29T16:26:55;97582.25;;;13.12;69.62
27864;BME280;15980;51.092;13.916;2022-09-29T16:32:00;97590.34;;;12.87;71.02
27864;BME280;15980;51.092;13.916;2022-09-29T16:37:24;97595.16;;;12.53;73.92
27864;BME280;15980;51.092;13.916;2022-09-29T16:42:29;97612.31;;;12.36;74.30
27864;BME280;15980;51.092;13.916;2022-09-29T16:47:32;97610.19;;;12.18;75.33
27864;BME280;15980;51.092;13.916;2022-09-29T16:52:42;97617.09;;;12.05;75.46
27864;BME280;15980;51.092;13.916;2022-09-29T16:57:53;97624.81;;;11.92;76.09
27864;BME280;15980;51.092;13.916;2022-09-29T17:02:57;97628.53;;;11.77;76.00
27864;BME280;15980;51.092;13.916;2022-09-29T17:08:00;97630.59;;;11.57;77.04
27864;BME280;15980;51.092;13.916;2022-09-29T17:13:08;97642.53;;;11.39;77.61
27864;BME280;15980;51.092;13.916;2022-09-29T17:18:14;97642.25;;;11.21;78.74
27864;BME280;15980;51.092;13.916;2022-09-29T17:23:18;97652.59;;;11.05;79.54
27864;BME280;15980;51.092;13.916;2022-09-29T17:28:23;97653.97;;;10.91;79.98
27864;BME280;15980;51.092;13.916;2022-09-29T17:33:27;97650.97;;;10.77;80.21
27864;BME280;15980;51.092;13.916;2022-09-29T17:38:29;97656.53;;;10.58;81.02
27864;BME280;15980;51.092;13.916;2022-09-29T17:43:34;97649.06;;;10.35;81.72
27864;BME280;15980;51.092;13.916;2022-09-29T17:48:36;97663.56;;;10.17;83.04
27864;BME280;15980;51.092;13.916;2022-09-29T17:53:39;97654.72;;;10.04;84.90
27864;BME280;15980;51.092;13.916;2022-09-29T17:58:44;97666.19;;;9.90;84.74
27864;BME280;15980;51.092;13.916;2022-09-29T18:03:47;97658.03;;;9.74;84.48
27864;BME280;15980;51.092;13.916;2022-09-29T18:08:51;97656.09;;;9.56;84.39
27864;BME280;15980;51.092;13.916;2022-09-29T18:13:56;97659.66;;;9.40;85.47
27864;BME280;15980;51.092;13.916;2022-09-29T18:18:59;97668.69;;;9.25;85.88
27864;BME280;15980;51.092;13.916;2022-09-29T18:24:02;97667.22;;;9.12;86.48
27864;BME280;15980;51.092;13.916;2022-09-29T18:29:13;97668.91;;;9.01;86.98
27864;BME280;15980;51.092;13.916;2022-09-29T18:34:17;97677.56;;;8.87;87.40
27864;BME280;15980;51.092;13.916;2022-09-29T18:39:21;97666.81;;;8.78;88.09
27864;BME280;15980;51.092;13.916;2022-09-29T18:44:25;97668.03;;;8.81;88.58
27864;BME280;15980;51.092;13.916;2022-09-29T18:49:33;97673.16;;;8.82;88.66
27864;BME280;15980;51.092;13.916;2022-09-29T18:54:36;97674.13;;;8.74;88.60
27864;BME280;15980;51.092;13.916;2022-09-29T18:59:40;97673.50;;;8.65;88.50
27864;BME280;15980;51.092;13.916;2022-09-29T19:04:43;97678.97;;;8.65;88.94
27864;BME280;15980;51.092;13.916;2022-09-29T19:09:47;97679.06;;;8.69;88.84
27864;BME280;15980;51.092;13.916;2022-09-29T19:14:51;97688.75;;;8.66;88.77
27864;BME280;15980;51.092;13.916;2022-09-29T19:19:54;97701.53;;;8.62;89.21
27864;BME280;15980;51.092;13.916;2022-09-29T19:24:57;97707.63;;;8.56;89.42
27864;BME280;15980;51.092;13.916;2022-09-29T19:30:01;97713.00;;;8.52;89.49
27864;BME280;15980;51.092;13.916;2022-09-29T19:35:07;97714.69;;;8.57;89.81
27864;BME280;15980;51.092;13.916;2022-09-29T19:40:15;97714.78;;;8.60;89.53
27864;BME280;15980;51.092;13.916;2022-09-29T19:45:20;97723.75;;;8.61;89.40
27864;BME280;15980;51.092;13.916;2022-09-29T19:50:23;97720.69;;;8.62;89.47
27864;BME280;15980;51.092;13.916;2022-09-29T19:55:44;97736.03;;;8.67;89.59
27864;BME280;15980;51.092;13.916;2022-09-29T20:00:54;97729.97;;;8.73;89.74
27864;BME280;15980;51.092;13.916;2022-09-29T20:05:58;97730.88;;;8.77;89.56
27864;BME280;15980;51.092;13.916;2022-09-29T20:11:05;97745.88;;;8.84;89.65
27864;BME280;15980;51.092;13.916;2022-09-29T20:16:10;97745.94;;;8.87;89.73
27864;BME280;15980;51.092;13.916;2022-09-29T20:21:13;97750.00;;;8.93;89.57
27864;BME280;15980;51.092;13.916;2022-09-29T20:26:16;97754.44;;;8.98;89.49
27864;BME280;15980;51.092;13.916;2022-09-29T20:31:22;97750.91;;;8.97;89.36
27864;BME280;15980;51.092;13.916;2022-09-29T20:36:25;97766.78;;;8.92;90.33
27864;BME280;15980;51.092;13.916;2022-09-29T20:41:28;97761.03;;;8.81;90.16
27864;BME280;15980;51.092;13.916;2022-09-29T20:46:32;97773.53;;;8.66;89.75
27864;BME280;15980;51.092;13.916;2022-09-29T20:51:36;97777.03;;;8.51;90.25
27864;BME280;15980;51.092;13.916;2022-09-29T20:56:39;97784.50;;;8.38;92.02
27864;BME280;15980;51.092;13.916;2022-09-29T21:01:44;97780.28;;;8.29;92.28
27864;BME280;15980;51.092;13.916;2022-09-29T21:06:49;97792.81;;;8.17;91.97
27864;BME280;15980;51.092;13.916;2022-09-29T21:11:53;97801.28;;;8.12;92.45
27864;BME280;15980;51.092;13.916;2022-09-29T21:16:58;97803.09;;;8.08;92.33
27864;BME280;15980;51.092;13.916;2022-09-29T21:22:02;97820.44;;;8.00;91.94
27864;BME280;15980;51.092;13.916;2022-09-29T21:27:05;97815.22;;;7.95;92.48
27864;BME280;15980;51.092;13.916;2022-09-29T21:32:09;97822.50;;;7.91;92.39
27864;BME280;15980;51.092;13.916;2022-09-29T21:37:12;97829.34;;;7.85;92.09
27864;BME280;15980;51.092;13.916;2022-09-29T21:42:15;97831.81;;;7.78;91.94
27864;BME280;15980;51.092;13.916;2022-09-29T21:47:19;97826.47;;;7.69;91.95
27864;BME280;15980;51.092;13.916;2022-09-29T21:52:42;97825.03;;;7.60;91.90
27864;BME280;15980;51.092;13.916;2022-09-29T21:57:45;97822.88;;;7.53;92.38
27864;BME280;15980;51.092;13.916;2022-09-29T22:02:50;97822.63;;;7.46;92.28
27864;BME280;15980;51.092;13.916;2022-09-29T22:07:53;97823.66;;;7.41;92.11
27864;BME280;15980;51.092;13.916;2022-09-29T22:12:56;97830.78;;;7.34;92.37
27864;BME280;15980;51.092;13.916;2022-09-29T22:18:01;97837.97;;;7.26;91.81
27864;BME280;15980;51.092;13.916;2022-09-29T22:23:04;97845.91;;;7.19;92.24
27864;BME280;15980;51.092;13.916;2022-09-29T22:28:07;97836.13;;;7.18;93.26
27864;BME280;15980;51.092;13.916;2022-09-29T22:33:12;97844.53;;;7.13;93.08
27864;BME280;15980;51.092;13.916;2022-09-29T22:38:15;97849.31;;;7.16;93.24
27864;BME280;15980;51.092;13.916;2022-09-29T22:43:18;97851.03;;;7.20;92.89
27864;BME280;15980;51.092;13.916;2022-09-29T22:48:22;97855.47;;;7.25;93.10
27864;BME280;15980;51.092;13.916;2022-09-29T22:53:25;97853.09;;;7.36;93.19
27864;BME280;15980;51.092;13.916;2022-09-29T22:58:28;97856.53;;;7.45;92.95
27864;BME280;15980;51.092;13.916;2022-09-29T23:03:32;97851.75;;;7.54;92.71
27864;BME280;15980;51.092;13.916;2022-09-29T23:08:36;97859.81;;;7.63;92.25
27864;BME280;15980;51.092;13.916;2022-09-29T23:13:39;97874.16;;;7.72;92.75
27864;BME280;15980;51.092;13.916;2022-09-29T23:18:44;97868.13;;;7.78;92.01
27864;BME280;15980;51.092;13.916;2022-09-29T23:23:52;97857.91;;;7.87;91.96
27864;BME280;15980;51.092;13.916;2022-09-29T23:28:55;97858.69;;;7.88;91.21
27864;BME280;15980;51.092;13.916;2022-09-29T23:34:00;97863.81;;;7.90;91.63
27864;BME280;15980;51.092;13.916;2022-09-29T23:39:03;97867.00;;;7.92;91.57
27864;BME280;15980;51.092;13.916;2022-09-29T23:44:17;97868.47;;;8.01;92.73
27864;BME280;15980;51.092;13.916;2022-09-29T23:49:23;97867.31;;;8.02;92.01
27864;BME280;15980;51.092;13.916;2022-09-29T23:54:27;97875.28;;;8.07;92.14
27864;BME280;15980;51.092;13.916;2022-09-29T23:59:30;97881.88;;;8.06;91.66
